Archival Weather

Bob Hope

Burbank, California (KBUR)

Report from: Tuesday, July 18, 2023 8:53 PM PDT
Current time: Wednesday, April 24, 2024 12:27 PM PDT

Current weather – Weather history – Daily summaries
Weather forecast

Temperature25.6°C (78.1°F)
Dew point15.0°C (59.0°F)
Winds 7 kts (3.6 m/s, 8.1 mph) East-Southeast (120°)
Visibility10 mi. (16.1 km)
Clouds Sky clear
Altimeter29.94 in.Hg (1014 mB)
Relative humidity52 %
Density altitude1,487 ft. (453 m)
Sea-level pressure101.3 kPa (1013 mB, 29.90 in.Hg)
Remarks Automated weather observing station with precipitation discriminator
Flight conditions Visual Meteorological Conditions
Raw dataKBUR 190353Z 12007KT 10SM CLR 26/15 A2994 RMK AO2 SLP125 T02560150
An error has occurred. This application may no longer respond until reloaded. Reload 🗙